createdAt,value
2022-10-04T00:02:20.928Z,64.66
2022-10-04T00:04:57.343Z,64.85
2022-10-04T00:07:30.162Z,64.85
2022-10-04T00:10:01.441Z,64.87
2022-10-04T00:12:34.740Z,65.10
2022-10-04T00:15:06.721Z,65.63
2022-10-04T00:17:36.257Z,65.66
2022-10-04T00:20:44.458Z,65.51
2022-10-04T00:23:46.810Z,65.69
2022-10-04T00:26:54.159Z,65.46
2022-10-04T00:29:32.242Z,65.41
2022-10-04T00:32:30.066Z,65.02
2022-10-04T00:34:59.781Z,65.54
2022-10-04T00:37:29.110Z,65.21
2022-10-04T00:40:20.006Z,64.76
2022-10-04T00:42:56.279Z,64.86
2022-10-04T00:45:37.666Z,64.77
2022-10-04T00:48:34.679Z,64.73
2022-10-04T00:51:12.926Z,64.73
2022-10-04T00:53:53.166Z,64.70
2022-10-04T00:56:30.333Z,64.74
2022-10-04T00:59:18.330Z,64.65
2022-10-04T01:01:51.121Z,64.68
2022-10-04T01:04:31.260Z,64.44
2022-10-04T01:07:02.374Z,64.95
2022-10-04T01:09:33.867Z,64.97
2022-10-04T01:12:06.738Z,65.22
2022-10-04T01:14:45.596Z,64.96
2022-10-04T01:17:14.035Z,65.26
2022-10-04T01:19:52.067Z,65.22
2022-10-04T01:22:36.841Z,65.61
2022-10-04T01:25:05.770Z,65.83
2022-10-04T01:27:37.736Z,65.90
2022-10-04T01:30:10.887Z,65.51
2022-10-04T01:32:40.865Z,65.85
2022-10-04T01:35:11.282Z,65.80
2022-10-04T01:37:41.302Z,65.87
2022-10-04T01:40:11.348Z,66.20
2022-10-04T01:42:46.110Z,65.70
2022-10-04T01:45:21.415Z,66.14
2022-10-04T01:47:54.415Z,66.66
2022-10-04T01:50:30.051Z,66.77
2022-10-04T01:53:04.117Z,66.91
2022-10-04T01:55:37.139Z,66.98
2022-10-04T01:58:12.940Z,67.37
2022-10-04T02:00:47.511Z,66.94
2022-10-04T02:03:21.483Z,66.83
2022-10-04T02:05:54.619Z,66.92
2022-10-04T02:08:30.779Z,67.14
2022-10-04T02:11:00.742Z,67.25
2022-10-04T02:13:35.029Z,67.75
2022-10-04T02:16:04.043Z,68.00
2022-10-04T02:18:34.345Z,68.52
2022-10-04T02:21:05.579Z,68.52
2022-10-04T02:23:38.701Z,68.87
2022-10-04T02:26:08.090Z,68.63
2022-10-04T02:28:37.966Z,69.02
2022-10-04T02:31:25.310Z,69.20
2022-10-04T02:33:56.853Z,69.38
2022-10-04T02:36:27.433Z,69.35
2022-10-04T02:39:02.742Z,69.48
2022-10-04T02:41:34.127Z,69.26
2022-10-04T02:44:10.513Z,69.02
2022-10-04T02:46:46.169Z,69.38
2022-10-04T02:49:21.569Z,69.16
2022-10-04T02:51:55.638Z,69.22
2022-10-04T02:54:32.206Z,69.16
2022-10-04T02:57:01.571Z,69.26
2022-10-04T02:59:35.254Z,68.88
2022-10-04T03:02:04.257Z,68.82
2022-10-04T03:04:36.349Z,68.77
2022-10-04T03:07:07.812Z,68.88
2022-10-04T03:09:39.387Z,68.97
2022-10-04T03:12:12.164Z,69.28
2022-10-04T03:14:41.403Z,69.12
2022-10-04T03:17:10.390Z,69.20
2022-10-04T03:19:39.950Z,69.17
2022-10-04T03:22:11.062Z,69.18
2022-10-04T03:24:47.891Z,68.59
2022-10-04T03:27:20.838Z,68.96
2022-10-04T03:29:50.474Z,69.05
2022-10-04T03:32:20.626Z,69.03
2022-10-04T03:34:54.746Z,68.28
2022-10-04T03:37:27.330Z,68.59
2022-10-04T03:39:58.859Z,68.10
2022-10-04T03:42:29.479Z,68.34
2022-10-04T03:45:03.094Z,67.81
2022-10-04T03:47:34.100Z,67.77
2022-10-04T03:50:06.413Z,67.95
2022-10-04T03:52:38.017Z,68.00
2022-10-04T03:55:09.694Z,67.56
2022-10-04T03:57:39.296Z,67.67
2022-10-04T04:00:08.318Z,67.54
2022-10-04T04:02:47.004Z,67.70
2022-10-04T04:05:23.018Z,67.52
2022-10-04T04:08:02.267Z,68.02
2022-10-04T04:10:34.597Z,67.86
2022-10-04T04:13:08.659Z,68.19
2022-10-04T04:15:37.180Z,68.12
2022-10-04T04:18:08.262Z,68.31
2022-10-04T04:20:38.910Z,68.35
2022-10-04T04:23:16.847Z,68.06
2022-10-04T04:25:49.726Z,68.16
2022-10-04T04:28:27.519Z,67.86
2022-10-04T04:31:01.394Z,68.18
2022-10-04T04:33:33.202Z,68.10
2022-10-04T04:36:06.629Z,67.95
2022-10-04T04:38:56.532Z,68.03
2022-10-04T04:41:27.462Z,67.85
2022-10-04T04:43:56.145Z,68.10
2022-10-04T04:46:27.612Z,68.29
2022-10-04T04:49:02.498Z,67.96
2022-10-04T04:51:33.500Z,68.21
2022-10-04T04:54:05.050Z,68.28
2022-10-04T04:56:36.150Z,68.28
2022-10-04T04:59:08.789Z,68.13
2022-10-04T05:01:43.678Z,68.18
2022-10-04T05:04:20.143Z,67.76
2022-10-04T05:06:50.269Z,67.46
2022-10-04T05:09:26.482Z,67.60
2022-10-04T05:12:02.482Z,67.87
2022-10-04T05:14:31.744Z,68.30
2022-10-04T05:17:00.155Z,68.34
2022-10-04T05:19:31.896Z,68.22
2022-10-04T05:22:03.754Z,68.13
2022-10-04T05:24:35.976Z,68.65
2022-10-04T05:27:10.147Z,68.37
2022-10-04T05:29:40.637Z,68.61
2022-10-04T05:32:25.935Z,68.50
2022-10-04T05:34:54.677Z,68.74
2022-10-04T05:37:35.612Z,68.51
2022-10-04T05:40:17.329Z,68.98
2022-10-04T05:42:47.896Z,69.35
2022-10-04T05:45:20.147Z,69.37
2022-10-04T05:47:51.551Z,69.54
2022-10-04T05:50:24.230Z,69.37
2022-10-04T05:52:53.715Z,69.89
2022-10-04T05:55:35.237Z,69.30
2022-10-04T05:58:34.383Z,68.66
2022-10-04T06:01:18.337Z,68.99
2022-10-04T06:04:06.050Z,68.61
2022-10-04T06:06:42.108Z,68.75
2022-10-04T06:09:22.141Z,68.74
2022-10-04T06:12:01.310Z,68.92
2022-10-04T06:14:58.645Z,69.01
2022-10-04T06:17:43.128Z,68.94
2022-10-04T06:20:43.828Z,68.99
2022-10-04T06:23:16.853Z,69.02
2022-10-04T06:25:48.881Z,68.95
2022-10-04T06:28:23.370Z,68.96
2022-10-04T06:31:14.933Z,69.20
2022-10-04T06:34:05.051Z,69.34
2022-10-04T06:36:48.145Z,69.70
2022-10-04T06:39:32.759Z,70.20
2022-10-04T06:42:34.274Z,70.59
2022-10-04T06:45:21.290Z,70.48
2022-10-04T06:48:07.380Z,70.71
2022-10-04T06:50:42.355Z,70.62
2022-10-04T06:53:27.805Z,70.84
2022-10-04T06:56:22.651Z,70.62
2022-10-04T06:59:13.874Z,70.45
2022-10-04T07:01:50.863Z,70.16
2022-10-04T07:04:41.149Z,69.22
2022-10-04T07:07:36.333Z,69.66
2022-10-04T07:10:21.487Z,68.87
2022-10-04T07:13:01.276Z,68.67
2022-10-04T07:15:36.739Z,68.16
2022-10-04T07:18:09.893Z,67.95
2022-10-04T07:20:39.858Z,67.15
2022-10-04T07:23:15.749Z,66.60
2022-10-04T07:25:48.074Z,66.65
2022-10-04T07:28:38.206Z,66.14
2022-10-04T07:31:14.457Z,66.26
2022-10-04T07:33:50.943Z,66.66
2022-10-04T07:36:25.756Z,65.96
2022-10-04T07:39:00.310Z,64.64
2022-10-04T07:41:33.994Z,64.04
2022-10-04T07:44:07.761Z,62.75
2022-10-04T07:46:47.647Z,61.10
2022-10-04T07:49:17.472Z,60.35
2022-10-04T07:52:03.800Z,59.04
2022-10-04T07:54:40.073Z,58.66
2022-10-04T07:57:16.330Z,57.95
2022-10-04T07:59:55.871Z,56.97
2022-10-04T08:02:33.521Z,57.09
2022-10-04T08:05:16.900Z,56.87
2022-10-04T08:08:00.176Z,57.09
2022-10-04T08:10:35.605Z,57.16
2022-10-04T08:13:17.385Z,56.06
2022-10-04T08:15:46.376Z,55.91
2022-10-04T08:18:29.315Z,55.18
2022-10-04T08:20:59.870Z,55.17
2022-10-04T08:23:51.622Z,54.53
2022-10-04T08:26:41.944Z,54.23
2022-10-04T08:29:44.369Z,53.45
2022-10-04T08:32:44.801Z,53.91
2022-10-04T08:35:36.372Z,52.80
2022-10-04T08:38:26.162Z,52.15
2022-10-04T08:41:26.764Z,52.49
2022-10-04T08:44:44.566Z,50.84
2022-10-04T08:47:50.854Z,51.88
2022-10-04T08:51:00.227Z,52.61
2022-10-04T08:54:04.770Z,52.33
2022-10-04T08:56:53.607Z,52.05
2022-10-04T08:59:59.070Z,51.45
2022-10-04T09:02:53.318Z,51.40
2022-10-04T09:05:43.942Z,51.32
2022-10-04T09:08:55.068Z,50.99
2022-10-04T09:11:41.616Z,50.96
2022-10-04T09:14:31.875Z,50.15
2022-10-04T09:17:21.844Z,50.82
2022-10-04T09:20:19.778Z,50.93
2022-10-04T09:22:50.192Z,51.02
2022-10-04T09:25:40.396Z,50.79
2022-10-04T09:28:38.531Z,50.30
2022-10-04T09:31:27.977Z,51.30
2022-10-04T09:34:17.285Z,51.26
2022-10-04T09:37:03.669Z,51.36
2022-10-04T09:40:08.124Z,51.96
2022-10-04T09:43:04.883Z,52.00
2022-10-04T09:45:49.743Z,52.29
2022-10-04T09:48:33.897Z,52.57
2022-10-04T09:51:29.601Z,52.34
2022-10-04T09:54:16.776Z,51.32
2022-10-04T09:57:01.406Z,51.57
2022-10-04T09:59:59.615Z,50.88
2022-10-04T10:02:59.048Z,50.93
2022-10-04T10:05:48.998Z,50.66
2022-10-04T10:08:28.238Z,50.58
2022-10-04T10:11:25.238Z,50.42
2022-10-04T10:14:20.113Z,50.37
2022-10-04T10:17:08.164Z,51.27
2022-10-04T10:20:16.870Z,50.90
2022-10-04T10:23:26.568Z,51.28
2022-10-04T10:26:22.990Z,50.77
2022-10-04T10:29:17.821Z,50.33
2022-10-04T10:32:00.135Z,50.09
2022-10-04T10:35:15.731Z,49.92
2022-10-04T10:38:04.425Z,49.07
2022-10-04T10:40:48.580Z,48.59
2022-10-04T10:43:43.476Z,48.39
2022-10-04T10:46:25.770Z,49.30
2022-10-04T10:49:22.330Z,48.00
2022-10-04T10:52:26.637Z,49.17
2022-10-04T10:55:19.558Z,47.75
2022-10-04T10:58:15.677Z,47.53
2022-10-04T11:00:58.042Z,46.56
2022-10-04T11:03:54.175Z,46.06
2022-10-04T11:06:52.355Z,46.40
2022-10-04T11:09:46.869Z,46.04
2022-10-04T11:12:50.953Z,45.05
2022-10-04T11:15:41.601Z,45.12
2022-10-04T11:18:55.241Z,44.45
2022-10-04T11:22:15.421Z,44.31
2022-10-04T11:25:25.410Z,44.24
2022-10-04T11:28:04.493Z,44.12
2022-10-04T11:31:02.668Z,44.04
2022-10-04T11:34:09.167Z,43.61
2022-10-04T11:36:57.332Z,43.67
2022-10-04T11:39:46.055Z,44.48
2022-10-04T11:42:28.119Z,44.45
2022-10-04T11:45:38.412Z,43.20
2022-10-04T11:48:24.834Z,43.95
2022-10-04T11:51:19.038Z,43.66
2022-10-04T11:54:16.897Z,43.67
2022-10-04T11:57:06.971Z,43.17
2022-10-04T11:59:46.861Z,42.09
2022-10-04T12:02:56.581Z,42.71
2022-10-04T12:06:01.821Z,43.43
2022-10-04T12:08:41.931Z,44.01
2022-10-04T12:11:51.082Z,42.76
2022-10-04T12:14:32.669Z,43.37
2022-10-04T12:17:33.568Z,42.66
2022-10-04T12:20:28.825Z,43.38
2022-10-04T12:23:15.544Z,42.85
2022-10-04T12:26:09.734Z,41.67
2022-10-04T12:29:17.586Z,42.55
2022-10-04T12:31:50.618Z,41.83
2022-10-04T12:34:27.994Z,41.79
2022-10-04T12:37:07.571Z,42.13
2022-10-04T12:40:00.963Z,41.64
2022-10-04T12:42:37.113Z,40.34
2022-10-04T12:45:27.765Z,41.59
2022-10-04T12:48:12.552Z,40.37
2022-10-04T12:50:54.993Z,40.48
2022-10-04T12:53:35.646Z,40.81
2022-10-04T12:56:09.451Z,41.06
2022-10-04T12:59:01.297Z,42.31
2022-10-04T13:01:41.706Z,41.34
2022-10-04T13:04:34.264Z,40.24
2022-10-04T13:07:20.253Z,40.09
2022-10-04T13:10:22.481Z,40.99
2022-10-04T13:13:11.343Z,40.81
2022-10-04T13:18:43.971Z,40.02
2022-10-04T13:21:17.758Z,40.36
2022-10-04T13:24:00.744Z,39.87
2022-10-04T13:26:46.734Z,39.61
2022-10-04T13:29:24.382Z,39.61
2022-10-04T13:31:59.111Z,40.40
2022-10-04T13:34:38.233Z,40.61
2022-10-04T13:37:32.743Z,41.10
2022-10-04T13:40:26.661Z,40.44
2022-10-04T13:43:20.587Z,40.95
2022-10-04T13:46:01.319Z,39.97
2022-10-04T13:48:44.478Z,40.32
2022-10-04T13:51:35.890Z,41.06
2022-10-04T13:54:35.309Z,40.73
2022-10-04T13:57:19.901Z,41.94
2022-10-04T13:59:55.131Z,41.02
2022-10-04T14:02:56.734Z,41.48
2022-10-04T14:06:10.466Z,42.25
2022-10-04T14:09:11.105Z,41.37
2022-10-04T14:12:06.858Z,39.99
2022-10-04T14:15:07.692Z,40.28
2022-10-04T14:18:27.152Z,40.79
2022-10-04T14:21:32.886Z,40.86
2022-10-04T14:24:33.313Z,41.93
2022-10-04T14:27:31.778Z,41.97
2022-10-04T14:30:17.560Z,42.84
2022-10-04T14:33:26.084Z,42.96
2022-10-04T14:36:13.889Z,43.12
2022-10-04T14:39:01.566Z,42.50
2022-10-04T14:42:07.155Z,43.17
2022-10-04T14:45:05.494Z,42.53
2022-10-04T14:48:03.372Z,43.04
2022-10-04T14:50:41.390Z,42.99
2022-10-04T14:53:22.195Z,42.27
2022-10-04T14:56:09.378Z,42.07
2022-10-04T14:58:52.984Z,43.27
2022-10-04T15:01:22.738Z,43.16
2022-10-04T15:04:26.088Z,43.31
2022-10-04T15:06:58.380Z,43.37
2022-10-04T15:09:58.948Z,43.90
2022-10-04T15:13:10.036Z,44.49
2022-10-04T15:15:52.484Z,44.28
2022-10-04T15:18:32.396Z,44.05
2022-10-04T15:21:11.144Z,44.00
2022-10-04T15:23:43.427Z,44.39
2022-10-04T15:26:44.965Z,44.59
2022-10-04T15:29:26.446Z,44.61
2022-10-04T15:32:07.463Z,44.34
2022-10-04T15:34:48.953Z,44.28
2022-10-04T15:37:28.104Z,44.35
2022-10-04T15:40:20.155Z,44.79
2022-10-04T15:43:20.060Z,44.74
2022-10-04T15:46:24.019Z,45.49
2022-10-04T15:49:09.515Z,45.91
2022-10-04T15:51:51.560Z,46.11
2022-10-04T15:57:31.476Z,46.89
2022-10-04T16:00:08.895Z,47.17
2022-10-04T16:03:09.338Z,47.13
2022-10-04T16:05:42.926Z,47.46
2022-10-04T16:08:42.919Z,47.72
2022-10-04T16:11:37.035Z,47.68
2022-10-04T16:14:36.650Z,47.87
2022-10-04T16:17:41.199Z,47.73
2022-10-04T16:20:46.372Z,47.78
2022-10-04T16:23:28.127Z,47.83
2022-10-04T16:25:58.282Z,48.55
2022-10-04T16:28:48.076Z,48.91
2022-10-04T16:31:29.721Z,49.86
2022-10-04T16:34:03.974Z,50.26
2022-10-04T16:36:48.727Z,50.58
2022-10-04T16:39:52.624Z,51.48
2022-10-04T16:42:27.798Z,51.40
2022-10-04T16:45:01.059Z,51.66
2022-10-04T16:47:35.076Z,52.14
2022-10-04T16:50:05.628Z,52.80
2022-10-04T16:52:59.048Z,53.36
2022-10-04T16:55:53.221Z,53.54
2022-10-04T17:01:43.407Z,54.34
2022-10-04T17:04:42.501Z,54.36
2022-10-04T17:07:23.666Z,54.74
2022-10-04T17:10:02.830Z,55.25
2022-10-04T17:12:37.340Z,55.53
2022-10-04T17:15:34.977Z,55.71
2022-10-04T17:18:14.526Z,56.20
2022-10-04T17:20:57.710Z,56.46
2022-10-04T17:23:43.015Z,56.34
2022-10-04T17:26:27.093Z,56.83
2022-10-04T17:28:58.215Z,57.35
2022-10-04T17:31:36.769Z,57.78
2022-10-04T17:34:14.921Z,57.70
2022-10-04T17:36:49.726Z,58.05
2022-10-04T17:39:44.496Z,57.78
2022-10-04T17:42:31.444Z,57.95
2022-10-04T17:45:33.134Z,58.33
2022-10-04T17:48:24.154Z,58.73
2022-10-04T17:51:17.419Z,59.24
2022-10-04T17:54:09.424Z,59.93
2022-10-04T17:56:44.942Z,59.92
2022-10-04T17:59:19.320Z,60.00
2022-10-04T18:01:53.157Z,60.48
2022-10-04T18:04:26.365Z,61.01
2022-10-04T18:06:59.712Z,61.12
2022-10-04T18:09:35.779Z,61.29
2022-10-04T18:12:12.641Z,61.82
2022-10-04T18:14:52.161Z,62.10
2022-10-04T18:17:33.100Z,62.42
2022-10-04T18:20:37.839Z,62.57
2022-10-04T18:23:18.631Z,62.46
2022-10-04T18:25:49.691Z,62.75
2022-10-04T18:28:22.283Z,62.52
2022-10-04T18:30:59.355Z,62.71
2022-10-04T18:33:45.588Z,62.73
2022-10-04T18:36:17.911Z,63.38
2022-10-04T18:39:00.983Z,63.79
2022-10-04T18:41:46.411Z,63.98
2022-10-04T18:44:16.936Z,63.98
2022-10-04T18:46:51.290Z,64.00
2022-10-04T18:49:25.291Z,64.33
2022-10-04T18:52:07.401Z,64.31
2022-10-04T18:54:45.543Z,63.86
2022-10-04T18:57:24.824Z,63.82
2022-10-04T19:00:21.183Z,63.93
2022-10-04T19:03:02.243Z,64.30
2022-10-04T19:05:39.602Z,64.73
2022-10-04T19:08:20.057Z,64.46
2022-10-04T19:10:52.407Z,64.92
2022-10-04T19:13:35.122Z,64.93
2022-10-04T19:16:17.026Z,64.99
2022-10-04T19:18:56.985Z,65.16
2022-10-04T19:21:34.074Z,65.37
2022-10-04T19:24:16.441Z,65.50
2022-10-04T19:26:48.628Z,65.47
2022-10-04T19:29:32.523Z,65.53
2022-10-04T19:32:05.354Z,65.90
2022-10-04T19:34:44.150Z,65.86
2022-10-04T19:37:21.625Z,65.96
2022-10-04T19:40:00.653Z,66.19
2022-10-04T19:42:37.291Z,66.32
2022-10-04T19:45:22.689Z,66.16
2022-10-04T19:47:55.833Z,66.39
2022-10-04T19:50:28.319Z,66.21
2022-10-04T19:53:03.297Z,66.58
2022-10-04T19:55:44.033Z,66.61
2022-10-04T19:58:27.587Z,66.80
2022-10-04T20:00:57.893Z,67.16
2022-10-04T20:03:26.580Z,67.17
2022-10-04T20:05:57.571Z,67.23
2022-10-04T20:09:00.785Z,66.96
2022-10-04T20:11:49.648Z,67.21
2022-10-04T20:14:47.111Z,67.05
2022-10-04T20:17:34.921Z,66.94
2022-10-04T20:20:03.323Z,67.08
2022-10-04T20:22:47.166Z,66.71
2022-10-04T20:25:53.655Z,66.43
2022-10-04T20:28:46.288Z,66.71
2022-10-04T20:31:52.010Z,66.37
2022-10-04T20:34:50.357Z,66.57
2022-10-04T20:37:19.305Z,66.80
2022-10-04T20:39:57.774Z,66.96
2022-10-04T20:42:34.313Z,67.11
2022-10-04T20:45:07.025Z,67.29
2022-10-04T20:47:39.358Z,67.23
2022-10-04T20:50:31.393Z,67.44
2022-10-04T20:53:03.486Z,67.67
2022-10-04T20:55:33.547Z,67.84
2022-10-04T20:58:03.604Z,67.81
2022-10-04T21:00:35.026Z,67.60
2022-10-04T21:03:11.603Z,67.94
2022-10-04T21:05:41.618Z,67.83
2022-10-04T21:08:21.724Z,68.00
2022-10-04T21:11:19.828Z,67.73
2022-10-04T21:13:56.694Z,67.68
2022-10-04T21:16:49.187Z,67.61
2022-10-04T21:19:51.527Z,67.41
2022-10-04T21:22:40.797Z,67.98
2022-10-04T21:25:32.415Z,67.94
2022-10-04T21:28:33.176Z,68.15
2022-10-04T21:31:02.781Z,68.56
2022-10-04T21:33:33.447Z,68.23
2022-10-04T21:36:02.039Z,68.68
2022-10-04T21:38:31.814Z,68.43
2022-10-04T21:41:00.085Z,68.27
2022-10-04T21:43:28.590Z,68.16
2022-10-04T21:45:57.127Z,68.33
2022-10-04T21:48:25.459Z,68.91
2022-10-04T21:50:54.873Z,69.04
2022-10-04T21:53:23.680Z,69.21
2022-10-04T21:55:53.337Z,68.99
2022-10-04T21:58:21.632Z,69.11
2022-10-04T22:00:50.154Z,68.64
2022-10-04T22:03:18.480Z,68.49
2022-10-04T22:05:46.776Z,68.36
2022-10-04T22:08:15.022Z,68.35
2022-10-04T22:10:43.598Z,68.75
2022-10-04T22:13:13.301Z,68.24
2022-10-04T22:15:42.645Z,68.87
2022-10-04T22:18:10.943Z,69.55
2022-10-04T22:20:39.327Z,69.65
2022-10-04T22:23:17.703Z,70.03
2022-10-04T22:25:46.078Z,70.45
2022-10-04T22:28:22.183Z,69.87
2022-10-04T22:30:50.886Z,70.47
2022-10-04T22:33:29.090Z,70.31
2022-10-04T22:35:58.930Z,70.25
2022-10-04T22:38:27.234Z,70.47
2022-10-04T22:40:55.488Z,70.78
2022-10-04T22:43:25.168Z,70.94
2022-10-04T22:45:55.589Z,70.86
2022-10-04T22:48:26.655Z,71.20
2022-10-04T22:50:55.026Z,71.15
2022-10-04T22:53:24.452Z,71.53
2022-10-04T22:55:55.974Z,71.79
2022-10-04T22:58:25.677Z,72.03
2022-10-04T23:00:56.164Z,72.46
2022-10-04T23:03:31.407Z,72.42
2022-10-04T23:06:00.478Z,72.40
2022-10-04T23:08:29.329Z,72.51
2022-10-04T23:10:59.014Z,72.64
2022-10-04T23:13:29.007Z,72.83
2022-10-04T23:16:00.721Z,72.79
2022-10-04T23:18:30.487Z,72.91
2022-10-04T23:21:02.265Z,72.82
2022-10-04T23:23:32.269Z,73.26
2022-10-04T23:26:00.556Z,73.40
2022-10-04T23:28:31.014Z,73.71
2022-10-04T23:31:06.131Z,73.41
2022-10-04T23:33:34.511Z,73.74
2022-10-04T23:36:02.843Z,73.91
2022-10-04T23:38:31.469Z,73.98
2022-10-04T23:41:00.137Z,74.06
2022-10-04T23:43:31.953Z,74.16
2022-10-04T23:46:00.550Z,74.39
2022-10-04T23:48:32.049Z,74.18
2022-10-04T23:51:01.132Z,74.32
2022-10-04T23:53:31.931Z,74.61
2022-10-04T23:56:05.194Z,74.55
2022-10-04T23:58:37.601Z,74.52
